Dodson, Texas
Current Conditions -  °F | °C
As of 9:53 PM on Tuesday 27 Jan 2015 (Local Time) from KCDS Reporting Station
Clear Clear  
Wind Chill: 52°   Ceiling: Unl
Heat Index: 52°   Visibility: 10mi
Dew Point: 34°   Wind: 10mph
Humidity: 50%   Direction: 210°SSW
Pressure: 30.09"   Gusts: NA
Location:  34.77°N, 100.02°W
Report Text: KCDS 280353Z AUTO 21009KT 10SM CLR 11/01 A3009 RMK AO2 SLP179 T01110011
Loading
Personal Weather Stations






























Interactive Weather Map New forecast layout! Learn more

10-Day Weather Forecast

Advertisements
Track Severe Weather on mobile